Time;durP1;ratioP1;P1;durP2;ratioP2;P2;SDS_P1;SDS_P2;PMS_P1;PMS_P2;Temp;Humidity;BMP_temperature;BMP_pressure;BME280_temperature;BME280_humidity;BME280_pressure;Samples;Min_cycle;Max_cycle;Signal;HPM_P1;HPM_P2
2023/12/22 00:02:19;;;;;;;0.90;0.90;;;5.50;99.90;;;;;;5095922;28;20073;-76
2023/12/22 00:04:45;;;;;;;5.57;5.18;;;5.50;99.90;;;;;;5096262;28;20553;-76
2023/12/22 00:07:11;;;;;;;0.90;0.90;;;5.50;99.90;;;;;;5095984;28;20114;-76
2023/12/22 00:09:36;;;;;;;0.93;0.93;;;5.40;99.90;;;;;;5095775;28;20384;-77
2023/12/22 00:12:03;;;;;;;0.90;0.90;;;5.30;99.90;;;;;;5096035;28;20040;-77
2023/12/22 00:14:28;;;;;;;0.93;0.90;;;5.20;99.90;;;;;;5095933;28;20086;-75
2023/12/22 00:16:54;;;;;;;1.17;1.08;;;5.20;99.90;;;;;;5095920;28;20461;-76
2023/12/22 00:19:20;;;;;;;0.90;0.90;;;5.20;99.90;;;;;;5095405;28;20139;-75
2023/12/22 00:21:45;;;;;;;0.93;0.90;;;5.10;99.90;;;;;;5095771;28;20490;-75
2023/12/22 00:24:11;;;;;;;1.00;0.90;;;5.80;99.90;;;;;;5095786;28;20047;-76
2023/12/22 00:26:36;;;;;;;0.90;0.90;;;5.20;99.90;;;;;;5096139;28;20456;-74
2023/12/22 00:29:02;;;;;;;6.13;3.70;;;5.20;99.90;;;;;;5095665;28;20044;-75
2023/12/22 00:31:28;;;;;;;1.02;0.95;;;5.20;99.90;;;;;;5095658;28;20178;-75
2023/12/22 00:33:54;;;;;;;0.95;0.95;;;5.20;99.90;;;;;;5095787;28;20093;-76
2023/12/22 00:36:22;;;;;;;0.90;0.90;;;5.30;99.90;;;;;;5095528;28;20180;-77
2023/12/22 00:38:48;;;;;;;0.80;0.80;;;5.30;99.90;;;;;;5095452;28;20079;-75
2023/12/22 00:41:14;;;;;;;0.90;0.90;;;5.30;99.90;;;;;;5095436;28;20561;-76
2023/12/22 00:43:40;;;;;;;0.90;0.90;;;5.30;99.90;;;;;;5095399;28;20047;-75
2023/12/22 00:46:05;;;;;;;0.90;0.90;;;5.30;99.90;;;;;;5095420;28;20040;-75
2023/12/22 00:48:31;;;;;;;0.93;0.93;;;5.30;99.90;;;;;;5095304;28;20376;-73
2023/12/22 00:50:56;;;;;;;0.90;0.90;;;5.30;99.90;;;;;;5095216;28;20047;-77
2023/12/22 00:53:22;;;;;;;1.00;0.90;;;5.30;99.90;;;;;;5095150;28;20444;-76
2023/12/22 00:55:47;;;;;;;0.90;0.90;;;5.30;99.90;;;;;;5095178;28;20040;-75
2023/12/22 00:58:13;;;;;;;0.90;0.90;;;5.30;99.90;;;;;;5095389;28;20043;-76
2023/12/22 01:00:39;;;;;;;0.90;0.90;;;5.30;99.90;;;;;;5095062;28;20040;-76
2023/12/22 01:03:04;;;;;;;1.10;1.00;;;5.30;99.90;;;;;;5094078;28;20036;-75
2023/12/22 01:05:30;;;;;;;0.90;0.90;;;5.40;99.90;;;;;;5094990;28;20096;-76
2023/12/22 01:07:55;;;;;;;1.05;1.00;;;5.40;99.90;;;;;;5094784;28;20032;-75
2023/12/22 01:10:21;;;;;;;2.25;1.20;;;5.40;99.90;;;;;;5094893;28;20464;-77
2023/12/22 01:12:46;;;;;;;0.90;0.90;;;6.00;99.90;;;;;;5095225;28;20040;-75
2023/12/22 01:15:12;;;;;;;0.90;0.90;;;5.40;99.90;;;;;;5094670;28;20463;-75
2023/12/22 01:17:38;;;;;;;1.10;1.00;;;5.50;99.90;;;;;;5094645;28;20052;-75
2023/12/22 01:20:04;;;;;;;0.90;0.90;;;5.50;99.90;;;;;;5094371;28;20071;-76
2023/12/22 01:22:32;;;;;;;0.88;0.88;;;5.50;99.90;;;;;;5094551;28;20043;-76
2023/12/22 01:24:57;;;;;;;0.90;0.90;;;5.50;99.90;;;;;;5076509;28;20395;-75
2023/12/22 01:27:23;;;;;;;1.08;0.98;;;5.50;99.90;;;;;;5094815;28;20036;-75
2023/12/22 01:29:48;;;;;;;1.13;1.02;;;5.50;99.90;;;;;;5094590;28;20040;-76
2023/12/22 01:32:14;;;;;;;0.80;0.80;;;5.50;99.90;;;;;;5094505;28;20040;-75
2023/12/22 01:34:40;;;;;;;4.53;3.38;;;5.60;99.90;;;;;;5094513;28;20168;-76
2023/12/22 01:37:05;;;;;;;1.10;1.00;;;5.60;99.90;;;;;;5094479;28;20047;-76
2023/12/22 01:39:31;;;;;;;1.00;0.95;;;5.60;99.90;;;;;;5094815;28;20383;-75
2023/12/22 01:41:57;;;;;;;0.93;0.90;;;5.60;99.90;;;;;;5094346;28;20449;-76
2023/12/22 01:44:22;;;;;;;1.90;1.80;;;5.60;99.90;;;;;;5094329;28;20104;-75
2023/12/22 01:46:49;;;;;;;0.90;0.90;;;5.60;99.90;;;;;;5094103;28;20453;-76
2023/12/22 01:49:15;;;;;;;0.90;0.90;;;5.60;99.90;;;;;;5094208;28;20036;-74
2023/12/22 01:51:42;;;;;;;1.10;1.00;;;5.60;99.90;;;;;;5094074;28;20055;-76
2023/12/22 01:54:07;;;;;;;0.80;0.80;;;5.60;99.90;;;;;;5094139;28;20043;-76
2023/12/22 01:56:34;;;;;;;0.90;0.90;;;5.60;99.90;;;;;;5094094;28;20280;-74
2023/12/22 01:59:01;;;;;;;1.35;1.00;;;5.50;99.90;;;;;;5094031;28;20040;-76
2023/12/22 02:01:28;;;;;;;0.90;0.90;;;5.60;99.90;;;;;;5094012;28;20109;-74
2023/12/22 02:03:54;;;;;;;0.90;0.90;;;5.50;99.90;;;;;;5093962;28;20032;-74
2023/12/22 02:06:20;;;;;;;0.90;0.90;;;5.50;99.90;;;;;;5094147;28;20044;-76
2023/12/22 02:08:50;;;;;;;1.10;1.00;;;5.50;99.90;;;;;;5093931;28;20074;-77
2023/12/22 02:11:16;;;;;;;0.90;0.90;;;5.60;99.90;;;;;;5093930;28;20118;-76
2023/12/22 02:13:45;;;;;;;0.90;0.90;;;5.60;99.90;;;;;;5093868;28;20043;-75
2023/12/22 02:16:30;;;;;;;0.80;0.80;;;5.60;99.90;;;;;;5093691;28;20040;-75
2023/12/22 02:18:57;;;;;;;0.90;0.90;;;5.60;99.90;;;;;;5093446;28;20070;-74
2023/12/22 02:21:23;;;;;;;0.90;0.90;;;5.60;99.90;;;;;;5093892;28;20052;-74
2023/12/22 02:23:48;;;;;;;1.10;1.00;;;5.60;99.90;;;;;;5093755;28;20048;-74
2023/12/22 02:26:36;;;;;;;1.10;1.00;;;5.60;99.90;;;;;;5093737;28;20040;-77
2023/12/22 02:29:02;;;;;;;0.90;0.90;;;5.60;99.90;;;;;;5093887;28;20044;-75
2023/12/22 02:31:44;;;;;;;0.90;0.90;;;5.90;99.90;;;;;;5093698;28;20071;-76
2023/12/22 02:34:13;;;;;;;0.90;0.90;;;6.10;99.90;;;;;;5093818;28;20392;-74
2023/12/22 02:36:40;;;;;;;3.30;3.00;;;6.00;99.90;;;;;;5093591;28;20047;-76
2023/12/22 02:39:07;;;;;;;;;;;5.50;99.90;;;;;;5093865;28;20046;-73
2023/12/22 02:41:33;;;;;;;1.40;1.30;;;5.50;99.90;;;;;;5093304;28;20352;-74
2023/12/22 02:43:59;;;;;;;0.90;0.90;;;5.50;99.90;;;;;;5093569;28;20058;-76
2023/12/22 02:46:25;;;;;;;1.10;1.00;;;5.60;99.90;;;;;;5093537;28;20044;-74
2023/12/22 02:48:50;;;;;;;0.90;0.90;;;5.50;99.90;;;;;;5093562;28;20478;-76
2023/12/22 02:51:16;;;;;;;0.80;0.80;;;6.10;99.90;;;;;;5093204;28;20064;-76
2023/12/22 02:53:41;;;;;;;0.90;0.90;;;5.60;99.90;;;;;;5093733;28;20032;-76
2023/12/22 02:56:07;;;;;;;1.00;0.93;;;5.50;99.90;;;;;;5093459;28;20545;-75
2023/12/22 02:58:32;;;;;;;0.90;0.90;;;5.50;99.90;;;;;;5093517;28;20028;-76
2023/12/22 03:00:58;;;;;;;0.90;0.90;;;5.50;99.90;;;;;;5093438;28;20487;-74
2023/12/22 03:03:24;;;;;;;1.58;1.48;;;5.50;99.90;;;;;;5093438;28;20062;-76
2023/12/22 03:05:49;;;;;;;0.90;0.90;;;5.50;99.90;;;;;;5093400;28;20039;-76
2023/12/22 03:08:15;;;;;;;0.90;0.90;;;5.60;99.90;;;;;;5093145;28;20036;-75
2023/12/22 03:10:40;;;;;;;1.08;1.00;;;5.60;99.90;;;;;;5093557;28;20407;-74
2023/12/22 03:13:06;;;;;;;0.90;0.90;;;5.60;99.90;;;;;;5093221;28;20078;-74
2023/12/22 03:15:34;;;;;;;1.15;1.10;;;5.60;99.90;;;;;;5092817;28;20040;-75
2023/12/22 03:17:59;;;;;;;0.90;0.90;;;5.60;99.90;;;;;;5093327;28;20059;-77
2023/12/22 03:20:26;;;;;;;0.90;0.90;;;5.70;99.90;;;;;;5092031;28;20060;-76
2023/12/22 03:22:52;;;;;;;0.93;0.90;;;5.70;99.90;;;;;;5092937;28;20090;-74
2023/12/22 03:25:17;;;;;;;1.10;1.00;;;5.70;99.90;;;;;;5093286;28;20036;-77
2023/12/22 03:27:43;;;;;;;0.80;0.80;;;5.80;99.90;;;;;;5095601;28;20093;-75
2023/12/22 03:30:09;;;;;;;0.85;0.85;;;5.70;99.90;;;;;;5096709;28;20040;-75
2023/12/22 03:32:34;;;;;;;0.90;0.90;;;5.70;99.90;;;;;;5096762;28;20119;-74
2023/12/22 03:35:00;;;;;;;0.90;0.90;;;5.70;99.90;;;;;;5096579;28;20094;-75
2023/12/22 03:37:26;;;;;;;1.08;1.00;;;5.70;99.90;;;;;;5095759;28;20044;-76
2023/12/22 03:39:51;;;;;;;0.90;0.90;;;5.70;99.90;;;;;;5096667;28;20379;-74
2023/12/22 03:42:17;;;;;;;0.98;0.93;;;5.70;99.90;;;;;;5096584;28;20101;-75
2023/12/22 03:44:42;;;;;;;0.80;0.80;;;5.60;99.90;;;;;;5096527;28;20146;-76
2023/12/22 03:47:08;;;;;;;0.90;0.90;;;6.80;99.90;;;;;;5096570;28;20089;-74
2023/12/22 03:49:33;;;;;;;0.90;0.90;;;5.60;99.90;;;;;;5096349;28;20495;-73
2023/12/22 03:51:59;;;;;;;1.27;1.17;;;5.50;99.90;;;;;;5096466;28;20044;-76
2023/12/22 03:54:25;;;;;;;0.90;0.90;;;5.50;99.90;;;;;;5096051;28;20129;-75
2023/12/22 03:56:50;;;;;;;0.90;0.90;;;5.40;99.90;;;;;;5096319;28;20040;-74
2023/12/22 03:59:18;;;;;;;0.90;0.90;;;5.40;99.90;;;;;;5096183;28;20032;-76
2023/12/22 04:01:44;;;;;;;0.90;0.90;;;5.40;99.90;;;;;;5096198;28;20115;-77
2023/12/22 04:04:09;;;;;;;0.90;0.90;;;5.40;99.90;;;;;;5096189;28;20499;-74
2023/12/22 04:06:39;;;;;;;0.90;0.90;;;5.40;99.90;;;;;;5096064;28;20036;-74
2023/12/22 04:09:05;;;;;;;16.08;1.48;;;5.40;99.90;;;;;;5096304;28;20119;-75
2023/12/22 04:11:31;;;;;;;0.90;0.90;;;5.40;99.90;;;;;;5095192;28;20162;-75
2023/12/22 04:13:56;;;;;;;0.90;0.90;;;5.40;99.90;;;;;;5095917;28;20388;-74
2023/12/22 04:16:22;;;;;;;0.90;0.90;;;5.40;99.90;;;;;;5095995;28;20113;-76
2023/12/22 04:18:48;;;;;;;0.80;0.80;;;5.40;99.90;;;;;;5095852;28;20066;-74
2023/12/22 04:21:13;;;;;;;1.20;1.10;;;5.40;99.90;;;;;;5095696;28;20062;-76
2023/12/22 04:23:39;;;;;;;0.90;0.90;;;5.40;99.90;;;;;;5095753;28;20090;-74
2023/12/22 04:26:04;;;;;;;0.90;0.90;;;5.40;99.90;;;;;;5095740;28;20035;-73
2023/12/22 04:28:30;;;;;;;1.00;0.90;;;6.30;99.90;;;;;;5095556;28;20047;-77
2023/12/22 04:30:55;;;;;;;1.80;1.70;;;5.40;99.90;;;;;;5096110;28;20035;-74
2023/12/22 04:33:21;;;;;;;0.90;0.90;;;5.40;99.90;;;;;;5095594;28;20040;-77
2023/12/22 04:35:47;;;;;;;1.08;1.00;;;5.40;99.90;;;;;;5095847;28;20036;-77
2023/12/22 04:38:12;;;;;;;1.60;1.50;;;5.30;99.90;;;;;;5095434;28;20459;-74
2023/12/22 04:40:38;;;;;;;0.95;0.90;;;5.30;99.90;;;;;;5095495;28;20059;-75
2023/12/22 04:43:03;;;;;;;0.90;0.90;;;5.30;99.90;;;;;;5095082;28;20044;-74
2023/12/22 04:45:29;;;;;;;0.90;0.90;;;5.40;99.90;;;;;;5095197;28;20051;-77
2023/12/22 04:47:54;;;;;;;1.00;1.00;;;5.30;99.90;;;;;;5095334;28;20162;-73
2023/12/22 04:50:20;;;;;;;0.80;0.80;;;5.50;99.90;;;;;;5095275;28;20040;-77
2023/12/22 04:52:45;;;;;;;0.90;0.90;;;5.30;99.90;;;;;;5095254;28;20080;-75
2023/12/22 04:55:11;;;;;;;0.90;0.90;;;5.30;99.90;;;;;;5095235;28;20039;-73
2023/12/22 04:57:37;;;;;;;1.10;1.00;;;5.30;99.90;;;;;;5095163;28;20032;-73
2023/12/22 05:00:03;;;;;;;1.55;1.45;;;5.30;99.90;;;;;;5095133;28;20044;-74
2023/12/22 05:02:29;;;;;;;0.90;0.90;;;5.30;99.90;;;;;;5095039;28;20043;-74
2023/12/22 05:04:54;;;;;;;0.90;0.90;;;5.30;99.90;;;;;;5095026;28;20035;-77
2023/12/22 05:07:20;;;;;;;0.90;0.90;;;5.30;99.90;;;;;;5094893;28;20376;-73
2023/12/22 05:09:45;;;;;;;0.90;0.90;;;5.30;99.90;;;;;;5094888;28;20559;-77
2023/12/22 05:12:11;;;;;;;0.80;0.80;;;5.30;99.90;;;;;;5094844;28;20384;-76
2023/12/22 05:14:37;;;;;;;1.55;1.45;;;5.30;99.90;;;;;;5093624;28;20039;-75
2023/12/22 05:17:02;;;;;;;0.90;0.90;;;5.40;99.90;;;;;;5094602;28;20403;-74
2023/12/22 05:19:28;;;;;;;0.80;0.80;;;5.40;99.90;;;;;;5095209;28;20036;-77
2023/12/22 05:21:55;;;;;;;0.90;0.90;;;5.50;99.90;;;;;;5094843;28;20075;-77
2023/12/22 05:24:22;;;;;;;0.90;0.90;;;5.50;99.90;;;;;;5094621;28;20430;-76
2023/12/22 05:26:47;;;;;;;0.90;0.90;;;5.60;99.90;;;;;;5094577;28;20040;-74
2023/12/22 05:29:13;;;;;;;0.80;0.80;;;5.60;99.90;;;;;;5094778;28;20041;-76
2023/12/22 05:31:39;;;;;;;1.05;1.00;;;5.70;99.90;;;;;;5094569;28;20043;-75
2023/12/22 05:34:05;;;;;;;0.90;0.90;;;6.00;99.90;;;;;;5094427;28;20044;-77
2023/12/22 05:36:31;;;;;;;0.90;0.90;;;5.70;99.90;;;;;;5094446;28;20036;-73
2023/12/22 05:38:56;;;;;;;1.08;1.08;;;6.70;99.90;;;;;;5094429;28;20483;-76
2023/12/22 05:41:22;;;;;;;1.00;0.90;;;5.80;99.90;;;;;;5094311;28;20093;-75
2023/12/22 05:43:48;;;;;;;0.90;0.90;;;6.10;99.90;;;;;;5094277;28;20039;-74
2023/12/22 05:46:13;;;;;;;0.88;0.88;;;5.90;99.90;;;;;;5094216;28;20065;-74
2023/12/22 05:48:39;;;;;;;0.80;0.80;;;5.80;99.90;;;;;;5094228;28;20123;-74
2023/12/22 05:51:07;;;;;;;3.33;3.08;;;5.80;99.90;;;;;;5093611;28;20042;-77
2023/12/22 05:53:33;;;;;;;0.90;0.90;;;5.80;99.90;;;;;;5094042;28;20040;-75
2023/12/22 05:55:59;;;;;;;0.90;0.90;;;6.20;99.90;;;;;;5094137;28;20043;-77
2023/12/22 05:58:25;;;;;;;0.90;0.90;;;5.80;99.90;;;;;;5092723;28;20089;-75
2023/12/22 06:00:50;;;;;;;0.90;0.90;;;5.80;99.90;;;;;;5094307;28;20110;-76
2023/12/22 06:03:16;;;;;;;0.90;0.90;;;6.00;99.90;;;;;;5094041;28;20043;-76
2023/12/22 06:05:41;;;;;;;0.90;0.90;;;6.10;99.90;;;;;;5093792;28;20460;-76
2023/12/22 06:08:07;;;;;;;0.88;0.88;;;5.90;99.90;;;;;;5094070;28;20039;-74
2023/12/22 06:10:32;;;;;;;0.90;0.90;;;5.90;99.90;;;;;;5093928;28;20040;-73
2023/12/22 06:12:58;;;;;;;0.90;0.90;;;5.90;99.90;;;;;;5093882;28;20042;-73
2023/12/22 06:15:24;;;;;;;0.90;0.90;;;5.90;99.90;;;;;;5093888;28;20051;-77
2023/12/22 06:17:49;;;;;;;1.30;1.20;;;5.90;99.90;;;;;;5093392;28;20156;-75
2023/12/22 06:20:15;;;;;;;1.00;1.00;;;5.90;99.90;;;;;;5093710;28;20040;-74
2023/12/22 06:22:41;;;;;;;0.82;0.82;;;6.10;99.90;;;;;;5093586;28;20036;-76
2023/12/22 06:25:07;;;;;;;1.50;1.40;;;5.90;99.90;;;;;;5093461;28;20157;-75
2023/12/22 06:27:33;;;;;;;1.00;1.00;;;6.00;99.90;;;;;;5093691;28;20032;-77
2023/12/22 06:29:59;;;;;;;0.80;0.80;;;6.90;99.90;;;;;;5093680;28;20364;-75
2023/12/22 06:32:25;;;;;;;0.80;0.80;;;5.90;99.90;;;;;;5094092;28;20086;-75
2023/12/22 06:34:50;;;;;;;0.80;0.80;;;5.90;99.90;;;;;;5093738;28;20039;-74
2023/12/22 06:37:16;;;;;;;0.80;0.80;;;5.90;99.90;;;;;;5093649;28;20093;-75
2023/12/22 06:39:42;;;;;;;0.90;0.90;;;5.90;99.90;;;;;;5093683;28;20119;-75
2023/12/22 06:42:11;;;;;;;0.90;0.90;;;5.90;99.90;;;;;;5092846;28;20036;-74
2023/12/22 06:44:37;;;;;;;0.80;0.80;;;5.90;99.90;;;;;;5093522;28;20036;-77
2023/12/22 06:47:03;;;;;;;0.88;0.88;;;5.90;99.90;;;;;;5093364;28;20036;-83
2023/12/22 06:49:28;;;;;;;0.90;0.90;;;6.00;99.90;;;;;;5093528;28;20047;-77
2023/12/22 06:51:54;;;;;;;0.90;0.90;;;6.90;99.90;;;;;;5093732;28;20042;-79
2023/12/22 06:54:20;;;;;;;0.80;0.80;;;6.00;99.90;;;;;;5093453;28;20044;-73
2023/12/22 06:56:45;;;;;;;0.88;0.88;;;6.00;99.90;;;;;;5093449;28;20114;-75
2023/12/22 06:59:11;;;;;;;0.80;0.80;;;6.00;99.90;;;;;;5093331;28;20036;-71
2023/12/22 07:01:37;;;;;;;0.80;0.80;;;6.00;99.90;;;;;;5092982;28;20040;-75
2023/12/22 07:04:04;;;;;;;0.90;0.90;;;6.00;99.90;;;;;;5097349;28;20282;-78
2023/12/22 07:06:34;;;;;;;0.82;0.82;;;6.00;99.90;;;;;;5097543;28;20048;-74
2023/12/22 07:09:11;;;;;;;0.90;0.90;;;6.00;99.90;;;;;;5096917;28;20541;-73
2023/12/22 07:11:38;;;;;;;2.28;2.00;;;6.90;99.90;;;;;;5097145;28;20127;-74
2023/12/22 07:14:04;;;;;;;1.17;1.08;;;6.00;99.90;;;;;;5097171;28;20460;-73
2023/12/22 07:16:29;;;;;;;0.80;0.80;;;6.00;99.90;;;;;;5097094;28;20046;-77
2023/12/22 07:18:55;;;;;;;0.90;0.90;;;6.00;99.90;;;;;;5097171;28;20048;-79
2023/12/22 07:21:21;;;;;;;0.90;0.90;;;6.00;99.90;;;;;;5096946;28;20059;-78
2023/12/22 07:23:46;;;;;;;3.13;1.95;;;6.10;99.90;;;;;;5096964;28;20152;-71
2023/12/22 07:26:12;;;;;;;0.90;0.90;;;6.50;99.90;;;;;;5096870;28;20077;-68
2023/12/22 07:28:38;;;;;;;0.88;0.88;;;6.10;99.90;;;;;;5097254;28;20127;-73
2023/12/22 07:31:04;;;;;;;0.88;0.88;;;6.10;99.90;;;;;;5096879;28;20028;-70
2023/12/22 07:33:30;;;;;;;0.80;0.80;;;6.10;99.90;;;;;;5097060;28;20379;-71
2023/12/22 07:35:55;;;;;;;0.90;0.90;;;6.10;99.90;;;;;;5096749;28;20119;-71
2023/12/22 07:38:21;;;;;;;0.80;0.80;;;6.10;99.90;;;;;;5096627;28;20036;-70
2023/12/22 07:40:46;;;;;;;1.88;1.70;;;6.30;99.90;;;;;;5096649;28;20044;-70
2023/12/22 07:43:14;;;;;;;0.98;0.98;;;6.10;99.90;;;;;;5096527;28;20039;-70
2023/12/22 07:45:39;;;;;;;0.90;0.90;;;6.10;99.90;;;;;;5096484;28;20090;-73
2023/12/22 07:48:06;;;;;;;0.80;0.80;;;6.10;99.90;;;;;;5094899;28;20124;-85
2023/12/22 07:50:32;;;;;;;0.88;0.88;;;6.10;99.90;;;;;;5096658;28;20044;-74
2023/12/22 07:52:58;;;;;;;0.80;0.80;;;6.10;99.90;;;;;;5096070;28;20036;-72
2023/12/22 07:55:24;;;;;;;0.80;0.80;;;6.40;99.90;;;;;;5096239;28;20503;-76
2023/12/22 07:57:50;;;;;;;0.85;0.85;;;6.10;99.90;;;;;;5096290;28;20040;-75
2023/12/22 08:00:17;;;;;;;0.80;0.80;;;6.10;99.90;;;;;;5096278;28;20047;-75
2023/12/22 08:02:42;;;;;;;0.90;0.90;;;6.10;99.90;;;;;;5096236;28;20082;-74
2023/12/22 08:05:08;;;;;;;0.90;0.90;;;6.10;99.90;;;;;;5096373;28;20067;-73
2023/12/22 08:07:35;;;;;;;0.80;0.80;;;6.10;99.90;;;;;;5096042;28;20040;-73
2023/12/22 08:10:01;;;;;;;0.93;0.93;;;6.10;99.90;;;;;;5096112;28;20293;-73
2023/12/22 08:12:28;;;;;;;0.80;0.80;;;6.00;99.90;;;;;;5095360;28;20117;-72
2023/12/22 08:14:53;;;;;;;1.00;0.90;;;6.10;99.90;;;;;;5095962;28;20036;-72
2023/12/22 08:17:19;;;;;;;0.90;0.90;;;6.10;99.90;;;;;;5095734;28;20126;-74
2023/12/22 08:19:45;;;;;;;0.90;0.90;;;6.30;99.90;;;;;;5095726;28;20047;-75
2023/12/22 08:22:13;;;;;;;0.80;0.80;;;6.10;99.90;;;;;;5095854;28;20032;-74
2023/12/22 08:24:39;;;;;;;0.80;0.80;;;6.10;99.90;;;;;;5095882;28;20048;-73
2023/12/22 08:27:06;;;;;;;1.73;1.63;;;6.60;99.90;;;;;;5094353;28;20036;-75
2023/12/22 08:29:32;;;;;;;0.90;0.90;;;6.90;99.90;;;;;;5095709;28;20048;-78
2023/12/22 08:31:58;;;;;;;0.90;0.90;;;7.00;99.90;;;;;;5095679;28;20048;-72
2023/12/22 08:34:24;;;;;;;0.90;0.90;;;6.20;99.90;;;;;;5095601;28;20080;-72
2023/12/22 08:36:49;;;;;;;0.80;0.80;;;6.20;99.90;;;;;;5095582;28;20043;-73
2023/12/22 08:39:15;;;;;;;0.85;0.85;;;6.20;99.90;;;;;;5095273;28;20040;-76
2023/12/22 08:41:41;;;;;;;1.00;1.00;;;6.90;99.90;;;;;;5095399;28;20367;-73
2023/12/22 08:44:07;;;;;;;2.20;2.10;;;6.20;99.90;;;;;;5095805;28;20376;-71
2023/12/22 08:46:33;;;;;;;0.90;0.90;;;6.20;99.90;;;;;;5095277;28;20039;-74
2023/12/22 08:48:59;;;;;;;0.90;0.90;;;6.20;99.90;;;;;;5095210;28;20570;-73
2023/12/22 08:51:26;;;;;;;0.70;0.70;;;6.20;99.90;;;;;;5094749;28;20051;-73
2023/12/22 08:53:54;;;;;;;0.90;0.90;;;6.30;99.90;;;;;;5094198;28;20087;-73
2023/12/22 08:56:23;;;;;;;0.77;0.77;;;6.30;99.90;;;;;;5092762;28;20040;-73
2023/12/22 08:58:51;;;;;;;0.90;0.90;;;6.30;99.90;;;;;;5092913;28;20451;-73
2023/12/22 09:01:18;;;;;;;0.80;0.80;;;6.20;99.90;;;;;;5092989;28;20046;-73
2023/12/22 09:03:46;;;;;;;0.80;0.80;;;6.20;99.90;;;;;;5092590;28;20483;-73
2023/12/22 09:06:17;;;;;;;0.80;0.80;;;6.20;99.90;;;;;;5093047;28;20525;-73
2023/12/22 09:08:44;;;;;;;0.80;0.80;;;6.20;99.90;;;;;;5093525;28;20040;-73
2023/12/22 09:11:16;;;;;;;0.80;0.80;;;6.20;99.90;;;;;;5093936;28;20047;-73
2023/12/22 09:13:42;;;;;;;0.80;0.80;;;7.00;99.90;;;;;;5094823;28;20032;-74
2023/12/22 09:16:08;;;;;;;0.88;0.88;;;6.20;99.90;;;;;;5094613;28;20047;-73
2023/12/22 09:18:34;;;;;;;0.85;0.85;;;6.20;99.90;;;;;;5095063;28;20048;-73
2023/12/22 09:21:01;;;;;;;0.80;0.80;;;6.20;99.90;;;;;;5094717;28;20078;-73
2023/12/22 09:23:26;;;;;;;0.90;0.90;;;6.20;99.90;;;;;;5094483;28;20278;-73
2023/12/22 09:25:52;;;;;;;0.80;0.80;;;6.20;99.90;;;;;;5094059;28;20047;-73
2023/12/22 09:28:17;;;;;;;1.02;1.00;;;6.20;99.90;;;;;;5094860;28;20468;-74
2023/12/22 09:30:43;;;;;;;0.80;0.80;;;6.20;99.90;;;;;;5094187;28;20468;-73
2023/12/22 09:33:09;;;;;;;0.90;0.90;;;7.00;99.90;;;;;;5094560;28;20040;-73
2023/12/22 09:35:35;;;;;;;0.80;0.80;;;6.50;99.90;;;;;;5094226;28;20536;-72
2023/12/22 09:38:01;;;;;;;0.90;0.90;;;6.50;99.90;;;;;;5094457;28;20349;-74
2023/12/22 09:40:27;;;;;;;0.80;0.80;;;6.40;99.90;;;;;;5094457;28;20028;-74
2023/12/22 09:42:58;;;;;;;0.77;0.77;;;6.40;99.90;;;;;;5094709;28;20535;-73
2023/12/22 09:45:24;;;;;;;0.90;0.90;;;7.20;99.90;;;;;;5094337;28;20098;-77
2023/12/22 09:47:51;;;;;;;0.80;0.80;;;6.40;99.90;;;;;;5094388;28;20388;-78
2023/12/22 09:50:19;;;;;;;0.80;0.80;;;6.40;99.90;;;;;;5093287;28;20036;-75
2023/12/22 09:52:45;;;;;;;0.90;0.90;;;6.40;99.90;;;;;;5094177;28;20455;-73
2023/12/22 09:55:13;;;;;;;0.85;0.85;;;6.40;99.90;;;;;;5094078;28;20075;-75
2023/12/22 09:57:39;;;;;;;0.80;0.80;;;7.40;99.90;;;;;;5093887;28;20035;-76
2023/12/22 10:00:08;;;;;;;1.20;1.10;;;6.50;99.90;;;;;;5094163;28;20109;-72
2023/12/22 10:02:35;;;;;;;0.90;0.90;;;6.50;99.90;;;;;;5094028;28;20318;-72
2023/12/22 10:05:01;;;;;;;0.80;0.80;;;6.50;99.90;;;;;;5093972;28;20046;-73
2023/12/22 10:07:28;;;;;;;0.90;0.90;;;6.50;99.90;;;;;;5093658;28;20380;-74
2023/12/22 10:09:56;;;;;;;0.90;0.90;;;6.50;99.90;;;;;;5094114;28;20062;-74
2023/12/22 10:12:23;;;;;;;0.80;0.80;;;6.50;99.90;;;;;;5093889;28;20057;-74
2023/12/22 10:14:49;;;;;;;0.88;0.88;;;6.50;99.90;;;;;;5093922;28;20043;-74
2023/12/22 10:17:16;;;;;;;0.80;0.80;;;6.60;99.90;;;;;;5093701;28;20089;-74
2023/12/22 10:19:42;;;;;;;0.85;0.85;;;6.50;99.90;;;;;;5093800;28;20047;-73
2023/12/22 10:22:07;;;;;;;0.77;0.77;;;6.50;99.90;;;;;;5093518;28;20040;-75
2023/12/22 10:24:38;;;;;;;0.80;0.80;;;6.50;99.90;;;;;;5093821;28;20036;-75
2023/12/22 10:27:04;;;;;;;0.77;0.77;;;6.50;99.90;;;;;;5093999;28;20047;-74
2023/12/22 10:29:30;;;;;;;0.80;0.80;;;6.50;99.90;;;;;;5093361;28;20040;-79
2023/12/22 10:31:55;;;;;;;0.90;0.90;;;7.30;99.90;;;;;;5092243;28;20039;-73
2023/12/22 10:34:21;;;;;;;0.90;0.90;;;6.60;99.90;;;;;;5093643;28;20032;-73
2023/12/22 10:36:47;;;;;;;0.80;0.80;;;6.50;99.90;;;;;;5097157;28;20047;-75
2023/12/22 10:39:13;;;;;;;0.90;0.90;;;6.50;99.90;;;;;;5097824;28;20126;-72
2023/12/22 10:41:38;;;;;;;3.15;2.35;;;6.50;99.90;;;;;;5097020;28;20115;-74
2023/12/22 10:44:04;;;;;;;0.80;0.80;;;6.60;99.90;;;;;;5097220;28;20048;-76
2023/12/22 10:46:33;;;;;;;0.80;0.80;;;6.50;99.90;;;;;;5097631;28;20040;-80
2023/12/22 10:48:59;;;;;;;0.85;0.85;;;6.50;99.90;;;;;;5097001;28;20494;-72
2023/12/22 10:51:25;;;;;;;0.85;0.85;;;6.50;99.90;;;;;;5097604;28;20036;-72
2023/12/22 10:53:51;;;;;;;0.90;0.90;;;6.50;99.90;;;;;;5097291;28;20430;-70
2023/12/22 10:56:17;;;;;;;0.90;0.90;;;6.50;99.90;;;;;;5097381;28;20043;-75
2023/12/22 10:58:45;;;;;;;0.90;0.90;;;7.30;99.90;;;;;;5097476;28;20075;-72
2023/12/22 11:01:13;;;;;;;0.80;0.80;;;6.50;99.90;;;;;;5097239;28;20036;-73
2023/12/22 11:03:41;;;;;;;0.80;0.80;;;6.50;99.90;;;;;;5097334;28;20040;-71
2023/12/22 11:06:10;;;;;;;0.90;0.90;;;6.50;99.90;;;;;;5097879;28;20494;-70
2023/12/22 11:08:38;;;;;;;0.80;0.80;;;7.10;99.90;;;;;;5101286;28;20048;-78
2023/12/22 11:11:20;;;;;;;0.90;0.90;;;6.50;99.90;;;;;;5096402;28;20040;-76
2023/12/22 11:13:47;;;;;;;0.80;0.80;;;6.50;99.90;;;;;;5105323;28;20051;-83
2023/12/22 11:16:14;;;;;;;1.27;1.17;;;6.50;99.90;;;;;;5097128;28;20402;-72
2023/12/22 11:18:40;;;;;;;;;;;6.50;99.90;;;;;;5097449;28;20059;-73
2023/12/22 11:21:07;;;;;;;0.80;0.80;;;6.50;99.90;;;;;;5096643;28;19959;-72
2023/12/22 11:23:34;;;;;;;0.80;0.80;;;6.50;99.90;;;;;;5096955;28;20172;-73
2023/12/22 11:26:02;;;;;;;0.85;0.85;;;7.40;99.90;;;;;;5096889;28;20099;-74
2023/12/22 11:28:28;;;;;;;0.90;0.90;;;6.50;99.90;;;;;;5096814;28;20028;-74
2023/12/22 11:30:55;;;;;;;0.90;0.90;;;7.40;99.90;;;;;;5096732;28;20089;-79
2023/12/22 11:33:23;;;;;;;0.88;0.88;;;6.50;99.90;;;;;;5096836;28;20051;-82
2023/12/22 11:35:53;;;;;;;0.85;0.85;;;6.50;99.90;;;;;;5097288;28;20380;-81
2023/12/22 11:38:18;;;;;;;0.90;0.90;;;6.60;99.90;;;;;;5096663;28;20043;-74
2023/12/22 11:40:44;;;;;;;0.80;0.80;;;6.60;99.90;;;;;;5096620;28;20118;-75
2023/12/22 11:43:10;;;;;;;0.90;0.90;;;6.60;99.90;;;;;;5096667;28;20047;-76
2023/12/22 11:45:36;;;;;;;0.90;0.90;;;6.60;99.90;;;;;;5096527;28;20443;-73
2023/12/22 11:48:08;;;;;;;0.80;0.80;;;6.60;99.90;;;;;;5096090;28;20334;-77
2023/12/22 11:50:34;;;;;;;0.80;0.80;;;6.70;99.90;;;;;;5096229;28;20036;-76
2023/12/22 11:53:19;;;;;;;0.90;0.90;;;6.70;99.90;;;;;;5096321;28;20042;-76
2023/12/22 11:56:02;;;;;;;0.90;0.90;;;6.70;99.90;;;;;;5096385;28;20044;-77
2023/12/22 11:58:58;;;;;;;0.90;0.90;;;6.70;99.90;;;;;;5096360;28;20028;-74
2023/12/22 12:01:25;;;;;;;0.85;0.85;;;6.80;99.90;;;;;;5096522;28;20043;-69
2023/12/22 12:03:56;;;;;;;0.85;0.85;;;6.70;99.90;;;;;;5096014;28;20032;-69
2023/12/22 12:06:29;;;;;;;0.80;0.80;;;6.70;99.90;;;;;;5096272;28;20032;-72
2023/12/22 12:08:55;;;;;;;0.80;0.80;;;6.80;99.90;;;;;;5096199;28;20044;-74
2023/12/22 12:11:22;;;;;;;0.90;0.90;;;6.80;99.90;;;;;;5096385;28;20040;-79
2023/12/22 12:13:48;;;;;;;0.85;0.85;;;6.80;99.90;;;;;;5096356;28;20036;-75
2023/12/22 12:16:18;;;;;;;0.90;0.90;;;6.80;99.90;;;;;;5094527;28;20464;-76
2023/12/22 12:18:45;;;;;;;0.90;0.90;;;6.80;99.90;;;;;;5095912;28;20054;-75
2023/12/22 12:21:11;;;;;;;0.90;0.90;;;6.80;99.90;;;;;;5095652;28;20036;-74
2023/12/22 12:23:38;;;;;;;0.80;0.80;;;6.80;99.90;;;;;;5095801;28;20035;-74
2023/12/22 12:26:11;;;;;;;1.08;1.00;;;6.80;99.90;;;;;;5095264;28;20048;-74
2023/12/22 12:28:37;;;;;;;0.90;0.90;;;6.80;99.90;;;;;;5095774;28;20040;-75
2023/12/22 12:31:08;;;;;;;0.80;0.80;;;6.80;99.90;;;;;;5095329;28;20127;-75
2023/12/22 12:33:35;;;;;;;0.88;0.88;;;6.80;99.90;;;;;;5094713;28;20044;-73
2023/12/22 12:36:04;;;;;;;1.30;1.20;;;6.80;99.90;;;;;;5096108;28;20085;-74
2023/12/22 12:38:58;;;;;;;0.80;0.80;;;6.80;99.90;;;;;;5095620;28;20063;-73
2023/12/22 12:41:34;;;;;;;0.90;0.90;;;6.80;99.90;;;;;;5095575;28;20036;-74
2023/12/22 12:44:00;;;;;;;0.90;0.90;;;7.80;99.90;;;;;;5094266;28;20116;-74
2023/12/22 12:46:34;;;;;;;1.02;0.93;;;6.90;99.90;;;;;;5093427;28;20055;-74
2023/12/22 12:49:06;;;;;;;0.80;0.80;;;6.80;99.90;;;;;;5092934;28;20134;-74
2023/12/22 12:51:39;;;;;;;0.90;0.90;;;6.90;99.90;;;;;;5094544;28;20040;-75
2023/12/22 12:54:08;;;;;;;0.90;0.90;;;6.90;99.90;;;;;;5093151;28;20076;-74
2023/12/22 12:56:47;;;;;;;1.05;1.00;;;6.90;99.90;;;;;;5093046;28;20035;-74